createdAt,value
2019-03-17T00:02:17.990Z,13.83
2019-03-17T00:04:46.424Z,12.27
2019-03-17T00:07:14.852Z,11.97
2019-03-17T00:09:43.276Z,13.90
2019-03-17T00:12:11.710Z,13.27
2019-03-17T00:14:40.139Z,14.50
2019-03-17T00:17:08.559Z,12.87
2019-03-17T00:19:37.006Z,11.97
2019-03-17T00:22:05.492Z,12.03
2019-03-17T00:24:33.926Z,10.83
2019-03-17T00:27:02.367Z,8.10
2019-03-17T00:29:30.779Z,10.73
2019-03-17T00:31:59.230Z,13.33
2019-03-17T00:34:27.628Z,9.77
2019-03-17T00:36:56.061Z,9.67
2019-03-17T00:39:24.537Z,12.27
2019-03-17T00:41:52.977Z,10.43
2019-03-17T00:44:21.416Z,10.23
2019-03-17T00:46:49.855Z,9.93
2019-03-17T00:49:18.294Z,8.80
2019-03-17T00:51:46.727Z,12.10
2019-03-17T00:54:15.154Z,10.10
2019-03-17T00:56:43.586Z,14.27
2019-03-17T00:59:11.998Z,7.53
2019-03-17T01:01:40.423Z,10.87
2019-03-17T01:04:08.875Z,9.10
2019-03-17T01:06:37.292Z,11.77
2019-03-17T01:09:06.184Z,9.53
2019-03-17T01:11:34.634Z,11.93
2019-03-17T01:14:03.055Z,8.60
2019-03-17T01:16:31.481Z,8.20
2019-03-17T01:18:59.884Z,8.77
2019-03-17T01:21:28.304Z,8.77
2019-03-17T01:23:56.739Z,8.93
2019-03-17T01:26:25.213Z,7.80
2019-03-17T01:28:53.631Z,9.00
2019-03-17T01:31:22.065Z,10.33
2019-03-17T01:33:50.492Z,8.13
2019-03-17T01:36:18.930Z,7.23
2019-03-17T01:38:47.325Z,9.60
2019-03-17T01:41:15.770Z,9.70
2019-03-17T01:43:44.205Z,8.13
2019-03-17T01:46:12.615Z,8.93
2019-03-17T01:48:41.023Z,8.30
2019-03-17T01:51:09.448Z,8.67
2019-03-17T01:53:37.863Z,9.40
2019-03-17T01:56:06.266Z,7.37
2019-03-17T01:58:34.723Z,7.03
2019-03-17T02:01:03.158Z,5.47
2019-03-17T02:03:31.608Z,7.10
2019-03-17T02:05:59.985Z,7.63
2019-03-17T02:08:28.423Z,6.80
2019-03-17T02:10:56.837Z,9.63
2019-03-17T02:13:25.267Z,8.77
2019-03-17T02:15:53.665Z,6.70
2019-03-17T02:18:22.065Z,6.67
2019-03-17T02:20:50.503Z,7.50
2019-03-17T02:23:18.903Z,6.93
2019-03-17T02:25:47.323Z,7.13
2019-03-17T02:28:15.746Z,8.87
2019-03-17T02:30:44.201Z,7.37
2019-03-17T02:33:12.629Z,7.90
2019-03-17T02:35:41.037Z,7.77
2019-03-17T02:38:09.461Z,5.63
2019-03-17T02:40:37.886Z,8.63
2019-03-17T02:43:06.299Z,7.07
2019-03-17T02:45:34.727Z,8.73
2019-03-17T02:48:03.135Z,7.23
2019-03-17T02:50:31.573Z,6.73
2019-03-17T02:52:59.999Z,5.97
2019-03-17T02:55:28.415Z,8.00
2019-03-17T02:57:56.964Z,5.60
2019-03-17T03:00:25.381Z,6.20
2019-03-17T03:02:53.782Z,6.73
2019-03-17T03:05:22.277Z,8.80
2019-03-17T03:07:50.667Z,5.63
2019-03-17T03:10:19.076Z,4.73
2019-03-17T03:12:47.499Z,5.40
2019-03-17T03:15:15.901Z,5.10
2019-03-17T03:17:44.341Z,6.70
2019-03-17T03:20:12.741Z,5.97
2019-03-17T03:22:41.196Z,5.17
2019-03-17T03:25:10.232Z,5.57
2019-03-17T03:27:38.701Z,4.40
2019-03-17T03:30:12.417Z,5.47
2019-03-17T03:32:40.850Z,6.57
2019-03-17T03:35:10.710Z,5.17
2019-03-17T03:37:39.110Z,4.30
2019-03-17T03:40:12.260Z,6.23
2019-03-17T03:42:40.665Z,6.57
2019-03-17T03:45:12.972Z,6.40
2019-03-17T03:47:41.388Z,3.93
2019-03-17T03:50:11.835Z,4.33
2019-03-17T03:52:40.317Z,5.83
2019-03-17T03:55:09.297Z,5.57
2019-03-17T03:57:37.700Z,6.47
2019-03-17T04:00:09.047Z,6.00
2019-03-17T04:02:37.628Z,5.17
2019-03-17T04:05:07.392Z,6.07
2019-03-17T04:07:35.799Z,5.60
2019-03-17T04:10:06.226Z,6.17
2019-03-17T04:12:34.629Z,4.30
2019-03-17T04:15:03.046Z,4.03
2019-03-17T04:17:31.454Z,6.27
2019-03-17T04:19:59.889Z,3.67
2019-03-17T04:22:28.310Z,4.57
2019-03-17T04:24:56.715Z,5.60
2019-03-17T04:27:25.152Z,5.53
2019-03-17T04:29:53.543Z,4.37
2019-03-17T04:32:21.959Z,5.57
2019-03-17T04:34:50.361Z,6.03
2019-03-17T04:37:18.798Z,5.30
2019-03-17T04:39:47.215Z,4.13
2019-03-17T04:42:15.630Z,2.67
2019-03-17T04:44:44.017Z,3.97
2019-03-17T04:47:12.455Z,3.97
2019-03-17T04:49:40.864Z,5.60
2019-03-17T04:52:09.321Z,4.33
2019-03-17T04:54:37.726Z,4.90
2019-03-17T04:57:06.150Z,4.33
2019-03-17T04:59:34.566Z,4.10
2019-03-17T05:02:03.008Z,4.33
2019-03-17T05:04:31.399Z,4.00
2019-03-17T05:06:59.792Z,3.63
2019-03-17T05:09:28.191Z,3.73
2019-03-17T05:11:56.616Z,2.90
2019-03-17T05:14:25.012Z,4.97
2019-03-17T05:16:53.434Z,3.73
2019-03-17T05:19:21.870Z,4.60
2019-03-17T05:21:50.292Z,3.30
2019-03-17T05:24:18.708Z,3.33
2019-03-17T05:26:47.124Z,3.33
2019-03-17T05:29:15.547Z,3.63
2019-03-17T05:31:43.955Z,5.27
2019-03-17T05:34:12.386Z,3.47
2019-03-17T05:36:40.796Z,3.93
2019-03-17T05:39:09.212Z,3.83
2019-03-17T05:41:37.646Z,3.77
2019-03-17T05:44:06.020Z,4.07
2019-03-17T05:46:34.491Z,4.27
2019-03-17T05:49:02.907Z,3.17
2019-03-17T05:51:31.355Z,2.77
2019-03-17T05:53:59.761Z,3.87
2019-03-17T05:56:28.181Z,3.07
2019-03-17T05:58:56.604Z,4.57
2019-03-17T06:01:25.030Z,2.63
2019-03-17T06:03:53.449Z,4.57
2019-03-17T06:06:21.888Z,3.50
2019-03-17T06:08:50.329Z,2.83
2019-03-17T06:11:18.760Z,3.03
2019-03-17T06:13:47.180Z,4.03
2019-03-17T06:16:15.614Z,3.53
2019-03-17T06:18:44.020Z,3.50
2019-03-17T06:21:12.463Z,4.43
2019-03-17T06:23:40.870Z,3.30
2019-03-17T06:26:09.315Z,3.33
2019-03-17T06:28:37.727Z,3.10
2019-03-17T06:31:06.160Z,2.17
2019-03-17T06:33:34.576Z,2.40
2019-03-17T06:36:03.000Z,1.53
2019-03-17T06:38:31.470Z,1.93
2019-03-17T06:40:59.878Z,1.80
2019-03-17T06:43:28.290Z,3.83
2019-03-17T06:45:56.718Z,1.60
2019-03-17T06:48:25.210Z,2.97
2019-03-17T06:50:53.581Z,2.70
2019-03-17T06:53:22.050Z,3.33
2019-03-17T06:55:50.456Z,3.57
2019-03-17T06:58:18.872Z,1.53
2019-03-17T07:00:47.303Z,3.65
2019-03-17T07:03:15.737Z,2.27
2019-03-17T07:05:44.168Z,2.30
2019-03-17T07:08:12.597Z,2.53
2019-03-17T07:10:41.037Z,2.62
2019-03-17T07:13:09.450Z,2.87
2019-03-17T07:15:37.894Z,2.85
2019-03-17T07:18:06.310Z,3.47
2019-03-17T07:20:34.757Z,2.30
2019-03-17T07:23:03.167Z,3.67
2019-03-17T07:25:31.599Z,2.43
2019-03-17T07:28:00.040Z,1.87
2019-03-17T07:30:28.454Z,5.07
2019-03-17T07:32:56.931Z,3.08
2019-03-17T07:35:25.337Z,3.47
2019-03-17T07:37:57.073Z,2.08
2019-03-17T07:40:23.897Z,2.37
2019-03-17T07:42:52.326Z,4.20
2019-03-17T07:45:20.743Z,2.92
2019-03-17T07:47:49.170Z,3.30
2019-03-17T07:50:17.670Z,3.22
2019-03-17T07:52:46.083Z,2.70
2019-03-17T07:55:14.505Z,2.35
2019-03-17T07:57:42.937Z,2.00
2019-03-17T08:00:14.737Z,2.33
2019-03-17T08:02:43.182Z,4.10
2019-03-17T08:05:11.583Z,3.00
2019-03-17T08:07:40.000Z,2.92
2019-03-17T08:10:15.769Z,3.47
2019-03-17T08:12:44.187Z,2.50
2019-03-17T08:15:13.787Z,2.00
2019-03-17T08:17:42.230Z,2.27
2019-03-17T08:20:11.877Z,2.50
2019-03-17T08:22:40.272Z,3.02
2019-03-17T08:25:10.894Z,2.77
2019-03-17T08:27:39.320Z,2.30
2019-03-17T08:30:17.634Z,2.98
2019-03-17T08:32:46.055Z,1.82
2019-03-17T08:35:14.476Z,2.40
2019-03-17T08:37:42.927Z,3.12
2019-03-17T08:40:13.539Z,2.08
2019-03-17T08:42:41.977Z,3.08
2019-03-17T08:45:12.125Z,5.05
2019-03-17T08:47:40.529Z,2.77
2019-03-17T08:50:13.891Z,3.30
2019-03-17T08:52:42.314Z,3.52
2019-03-17T08:55:11.585Z,5.12
2019-03-17T08:57:40.084Z,3.70
2019-03-17T09:00:19.532Z,2.92
2019-03-17T09:02:47.944Z,2.70
2019-03-17T09:05:16.536Z,5.53
2019-03-17T09:07:44.958Z,3.65
2019-03-17T09:10:15.471Z,1.75
2019-03-17T09:12:43.910Z,6.78
2019-03-17T09:15:12.405Z,5.05
2019-03-17T09:17:40.812Z,2.20
2019-03-17T09:20:11.380Z,3.02
2019-03-17T09:22:39.799Z,1.42
2019-03-17T09:25:10.173Z,3.47
2019-03-17T09:27:38.681Z,5.50
2019-03-17T09:30:13.098Z,2.87
2019-03-17T09:32:41.534Z,3.33
2019-03-17T09:35:10.505Z,4.03
2019-03-17T09:37:38.987Z,5.05
2019-03-17T09:40:17.523Z,1.62
2019-03-17T09:42:45.931Z,5.47
2019-03-17T09:45:15.514Z,4.33
2019-03-17T09:47:43.946Z,1.85
2019-03-17T09:50:14.613Z,3.85
2019-03-17T09:52:43.187Z,4.75
2019-03-17T09:55:11.765Z,6.65
2019-03-17T09:57:40.200Z,5.35
2019-03-17T10:00:11.657Z,23.27
2019-03-17T10:02:40.278Z,194.85
2019-03-17T10:05:09.951Z,264.20
2019-03-17T10:07:38.387Z,273.30
2019-03-17T10:10:12.483Z,287.25
2019-03-17T10:12:40.901Z,269.00
2019-03-17T10:15:12.514Z,319.65
2019-03-17T10:17:40.963Z,431.90
2019-03-17T10:20:14.792Z,432.45
2019-03-17T10:22:43.272Z,402.73
2019-03-17T10:25:12.727Z,465.52
2019-03-17T10:27:41.501Z,440.90
2019-03-17T10:30:17.803Z,430.63
2019-03-17T10:32:46.224Z,373.25
2019-03-17T10:35:14.743Z,314.12
2019-03-17T10:37:43.164Z,288.82
2019-03-17T10:40:18.953Z,292.30
2019-03-17T10:42:47.459Z,283.15
2019-03-17T10:45:15.907Z,268.70
2019-03-17T10:47:44.404Z,249.27
2019-03-17T10:50:22.602Z,186.75
2019-03-17T10:52:51.023Z,202.47
2019-03-17T10:55:19.463Z,176.80
2019-03-17T10:57:47.893Z,163.80
2019-03-17T11:00:21.493Z,147.47
2019-03-17T11:02:50.050Z,153.85
2019-03-17T11:05:18.430Z,93.33
2019-03-17T11:07:47.036Z,70.52
2019-03-17T11:10:16.030Z,92.20
2019-03-17T11:12:44.461Z,83.78
2019-03-17T11:15:20.847Z,84.58
2019-03-17T11:17:49.290Z,60.95
2019-03-17T11:20:17.879Z,61.80
2019-03-17T11:22:46.562Z,44.73
2019-03-17T11:25:19.326Z,46.63
2019-03-17T11:27:47.763Z,47.53
2019-03-17T11:30:20.015Z,55.70
2019-03-17T11:32:48.536Z,69.17
2019-03-17T11:35:17.010Z,53.90
2019-03-17T11:37:45.504Z,46.98
2019-03-17T11:40:18.197Z,52.90
2019-03-17T11:42:49.456Z,39.33
2019-03-17T11:45:17.522Z,45.07
2019-03-17T11:47:46.304Z,107.03
2019-03-17T11:50:20.598Z,70.40
2019-03-17T11:52:49.445Z,87.97
2019-03-17T11:55:18.040Z,75.47
2019-03-17T11:57:46.524Z,76.73
2019-03-17T12:00:18.688Z,57.10
2019-03-17T12:02:47.188Z,63.45
2019-03-17T12:05:15.623Z,55.08
2019-03-17T12:07:44.038Z,39.75
2019-03-17T12:10:20.696Z,42.62
2019-03-17T12:12:49.171Z,43.13
2019-03-17T12:15:34.676Z,35.23
2019-03-17T12:18:03.180Z,29.98
2019-03-17T12:20:31.660Z,19.52
2019-03-17T12:23:00.160Z,18.60
2019-03-17T12:25:28.646Z,23.50
2019-03-17T12:27:57.066Z,19.97
2019-03-17T12:30:26.281Z,15.13
2019-03-17T12:32:55.334Z,15.30
2019-03-17T12:35:23.961Z,13.83
2019-03-17T12:37:52.368Z,27.83
2019-03-17T12:40:20.779Z,20.17
2019-03-17T12:42:49.223Z,19.57
2019-03-17T12:45:17.783Z,30.87
2019-03-17T12:47:46.280Z,58.20
2019-03-17T12:50:18.974Z,56.03
2019-03-17T12:52:47.420Z,39.37
2019-03-17T12:55:15.845Z,31.73
2019-03-17T12:57:44.280Z,89.37
2019-03-17T13:00:15.518Z,26.57
2019-03-17T13:02:43.972Z,46.97
2019-03-17T13:05:13.228Z,38.30
2019-03-17T13:07:41.666Z,35.57
2019-03-17T13:10:20.578Z,39.78
2019-03-17T13:12:49.246Z,39.50
2019-03-17T13:15:17.760Z,38.30
2019-03-17T13:17:46.210Z,42.57
2019-03-17T13:20:15.991Z,68.50
2019-03-17T13:22:44.477Z,53.27
2019-03-17T13:25:13.146Z,55.07
2019-03-17T13:27:41.736Z,37.17
2019-03-17T13:30:17.704Z,42.33
2019-03-17T13:32:46.256Z,32.53
2019-03-17T13:35:14.786Z,22.47
2019-03-17T13:37:43.272Z,28.40
2019-03-17T13:40:27.660Z,25.53
2019-03-17T13:42:44.989Z,24.50
2019-03-17T13:45:14.067Z,26.03
2019-03-17T13:47:42.922Z,17.03
2019-03-17T13:50:24.029Z,14.70
2019-03-17T13:52:52.514Z,15.83
2019-03-17T13:55:21.248Z,12.07
2019-03-17T13:57:58.630Z,19.53
2019-03-17T14:00:27.076Z,30.10
2019-03-17T14:02:55.491Z,25.23
2019-03-17T14:05:23.919Z,30.70
2019-03-17T14:07:52.346Z,31.77
2019-03-17T14:10:20.759Z,31.07
2019-03-17T14:12:49.200Z,32.17
2019-03-17T14:15:17.626Z,25.77
2019-03-17T14:17:46.246Z,23.90
2019-03-17T14:20:20.923Z,18.70
2019-03-17T14:22:49.959Z,25.40
2019-03-17T14:25:23.946Z,24.27
2019-03-17T14:27:52.475Z,26.63
2019-03-17T14:30:20.948Z,27.47
2019-03-17T14:32:49.638Z,18.70
2019-03-17T14:35:21.356Z,16.80
2019-03-17T14:37:48.567Z,13.53
2019-03-17T14:40:17.428Z,24.23
2019-03-17T14:42:48.067Z,19.83
2019-03-17T14:45:17.634Z,22.00
2019-03-17T14:47:46.136Z,15.40
2019-03-17T14:50:17.049Z,14.43
2019-03-17T14:52:45.540Z,17.07
2019-03-17T14:55:14.038Z,26.00
2019-03-17T14:57:42.739Z,17.23
2019-03-17T15:00:16.064Z,18.37
2019-03-17T15:02:45.034Z,17.53
2019-03-17T15:05:13.686Z,42.73
2019-03-17T15:07:42.139Z,46.10
2019-03-17T15:10:13.214Z,50.50
2019-03-17T15:12:41.658Z,38.43
2019-03-17T15:15:13.030Z,47.80
2019-03-17T15:17:41.556Z,48.17
2019-03-17T15:20:12.913Z,40.63
2019-03-17T15:22:41.325Z,58.33
2019-03-17T15:25:11.184Z,51.33
2019-03-17T15:27:41.841Z,82.93
2019-03-17T15:30:12.780Z,52.83
2019-03-17T15:32:41.220Z,81.30
2019-03-17T15:35:12.180Z,78.07
2019-03-17T15:37:40.617Z,38.20
2019-03-17T15:40:14.979Z,44.47
2019-03-17T15:42:43.599Z,37.37
2019-03-17T15:45:16.906Z,18.13
2019-03-17T15:47:45.485Z,21.77
2019-03-17T15:50:15.885Z,13.73
2019-03-17T15:52:44.285Z,19.70
2019-03-17T15:55:15.393Z,16.70
2019-03-17T15:57:44.090Z,19.87
2019-03-17T16:00:25.043Z,9.53
2019-03-17T16:02:45.171Z,13.00
2019-03-17T16:05:13.757Z,8.13
2019-03-17T16:07:42.923Z,7.37
2019-03-17T16:10:17.031Z,48.40
2019-03-17T16:12:45.472Z,165.20
2019-03-17T16:15:14.973Z,62.47
2019-03-17T16:17:43.395Z,107.33
2019-03-17T16:20:20.226Z,112.00
2019-03-17T16:22:48.882Z,48.47
2019-03-17T16:25:28.209Z,57.10
2019-03-17T16:27:56.769Z,47.17
2019-03-17T16:30:29.380Z,49.03
2019-03-17T16:32:57.785Z,55.90
2019-03-17T16:35:28.053Z,50.73
2019-03-17T16:37:56.418Z,68.63
2019-03-17T16:40:31.915Z,48.77
2019-03-17T16:43:00.430Z,78.60
2019-03-17T16:45:28.865Z,106.40
2019-03-17T16:47:57.475Z,66.13
2019-03-17T16:50:26.114Z,73.93
2019-03-17T16:52:54.525Z,50.27
2019-03-17T16:55:23.054Z,57.23
2019-03-17T16:57:51.600Z,61.23
2019-03-17T17:00:24.332Z,114.90
2019-03-17T17:02:52.861Z,106.77
2019-03-17T17:05:22.331Z,45.10
2019-03-17T17:07:50.768Z,33.33
2019-03-17T17:10:29.281Z,32.07
2019-03-17T17:12:57.803Z,87.40
2019-03-17T17:15:31.184Z,34.47
2019-03-17T17:17:59.583Z,31.03
2019-03-17T17:20:41.266Z,33.07
2019-03-17T17:23:09.689Z,13.20
2019-03-17T17:25:38.188Z,20.10
2019-03-17T17:28:06.635Z,13.50
2019-03-17T17:30:35.039Z,18.90
2019-03-17T17:33:03.477Z,14.30
2019-03-17T17:35:31.917Z,55.50
2019-03-17T17:38:00.362Z,85.00
2019-03-17T17:40:28.873Z,40.70
2019-03-17T17:42:57.291Z,32.00
2019-03-17T17:45:26.287Z,206.20
2019-03-17T17:47:54.704Z,77.00
2019-03-17T17:50:30.633Z,68.43
2019-03-17T17:52:59.063Z,35.40
2019-03-17T17:55:27.633Z,59.83
2019-03-17T17:57:56.221Z,27.67
2019-03-17T18:00:44.408Z,20.43
2019-03-17T18:03:12.836Z,29.07
2019-03-17T18:05:41.253Z,31.40
2019-03-17T18:08:09.733Z,22.93
2019-03-17T18:10:38.301Z,37.47
2019-03-17T18:13:06.796Z,36.30
2019-03-17T18:15:35.861Z,29.73
2019-03-17T18:18:04.474Z,25.83
2019-03-17T18:20:32.889Z,26.63
2019-03-17T18:23:01.330Z,30.87
2019-03-17T18:25:29.806Z,20.90
2019-03-17T18:27:58.580Z,31.13
2019-03-17T18:30:26.983Z,21.83
2019-03-17T18:32:55.459Z,14.67
2019-03-17T18:35:23.881Z,21.50
2019-03-17T18:37:52.314Z,23.23
2019-03-17T18:40:21.664Z,17.03
2019-03-17T18:42:50.411Z,24.90
2019-03-17T18:45:32.560Z,10.73
2019-03-17T18:48:01.000Z,22.37
2019-03-17T18:50:29.407Z,18.73
2019-03-17T18:52:58.125Z,13.50
2019-03-17T18:55:26.548Z,13.60
2019-03-17T18:57:55.054Z,9.43
2019-03-17T19:00:26.760Z,13.33
2019-03-17T19:02:55.193Z,14.67
2019-03-17T19:05:23.604Z,12.03
2019-03-17T19:07:52.051Z,11.37
2019-03-17T19:10:21.203Z,18.70
2019-03-17T19:12:49.720Z,16.07
2019-03-17T19:15:21.998Z,11.47
2019-03-17T19:17:50.725Z,9.13
2019-03-17T19:20:21.027Z,9.67
2019-03-17T19:22:49.500Z,16.63
2019-03-17T19:25:22.926Z,12.27
2019-03-17T19:27:51.421Z,12.43
2019-03-17T19:30:21.868Z,12.37
2019-03-17T19:32:50.484Z,12.17
2019-03-17T19:35:18.966Z,10.53
2019-03-17T19:37:47.402Z,15.77
2019-03-17T19:40:18.127Z,13.43
2019-03-17T19:42:57.898Z,9.50
2019-03-17T19:45:16.777Z,5.10
2019-03-17T19:47:45.183Z,6.10
2019-03-17T19:50:18.047Z,8.03
2019-03-17T19:52:46.483Z,10.40
2019-03-17T19:55:15.006Z,7.90
2019-03-17T19:57:43.443Z,5.70
2019-03-17T20:00:17.426Z,9.30
2019-03-17T20:02:47.724Z,7.73
2019-03-17T20:05:16.278Z,7.20
2019-03-17T20:07:44.691Z,6.13
2019-03-17T20:10:29.863Z,8.37
2019-03-17T20:13:10.410Z,10.53
2019-03-17T20:15:28.480Z,4.30
2019-03-17T20:17:56.936Z,6.60
2019-03-17T20:20:25.513Z,6.93
2019-03-17T20:22:53.920Z,5.57
2019-03-17T20:25:22.342Z,5.50
2019-03-17T20:27:50.814Z,4.27
2019-03-17T20:30:20.016Z,4.03
2019-03-17T20:32:48.519Z,6.00
2019-03-17T20:35:16.991Z,7.70
2019-03-17T20:37:45.401Z,5.97
2019-03-17T20:40:16.020Z,5.57
2019-03-17T20:42:44.429Z,3.23
2019-03-17T20:45:14.187Z,5.55
2019-03-17T20:47:42.870Z,7.20
2019-03-17T20:50:18.662Z,2.83
2019-03-17T20:52:47.060Z,8.90
2019-03-17T20:55:15.556Z,4.57
2019-03-17T20:57:44.002Z,3.73
2019-03-17T21:00:19.556Z,3.37
2019-03-17T21:02:47.971Z,2.40
2019-03-17T21:05:16.404Z,3.30
2019-03-17T21:07:44.839Z,2.37
2019-03-17T21:10:15.230Z,2.97
2019-03-17T21:12:43.655Z,4.33
2019-03-17T21:15:13.327Z,6.93
2019-03-17T21:17:41.739Z,2.93
2019-03-17T21:20:15.381Z,4.60
2019-03-17T21:22:43.825Z,8.27
2019-03-17T21:25:12.559Z,4.63
2019-03-17T21:27:41.004Z,4.43
2019-03-17T21:30:12.830Z,5.13
2019-03-17T21:32:41.245Z,2.60
2019-03-17T21:35:09.691Z,4.30
2019-03-17T21:37:38.092Z,2.97
2019-03-17T21:40:09.537Z,4.47
2019-03-17T21:42:37.969Z,3.50
2019-03-17T21:45:08.647Z,2.77
2019-03-17T21:47:37.098Z,3.67
2019-03-17T21:50:14.202Z,4.27
2019-03-17T21:52:42.632Z,1.93
2019-03-17T21:55:11.781Z,2.57
2019-03-17T21:57:40.232Z,6.73
2019-03-17T22:00:11.982Z,3.17
2019-03-17T22:02:40.399Z,3.43
2019-03-17T22:05:08.852Z,3.53
2019-03-17T22:07:48.770Z,1.03
2019-03-17T22:10:14.168Z,1.10
2019-03-17T22:12:42.647Z,4.50
2019-03-17T22:15:15.207Z,2.77
2019-03-17T22:17:43.724Z,1.97
2019-03-17T22:20:13.365Z,3.00
2019-03-17T22:22:41.816Z,2.47
2019-03-17T22:25:16.777Z,1.13
2019-03-17T22:27:45.232Z,1.70
2019-03-17T22:30:21.371Z,2.17
2019-03-17T22:32:49.840Z,3.00
2019-03-17T22:35:18.236Z,1.70
2019-03-17T22:37:46.768Z,1.20
2019-03-17T22:40:19.070Z,1.60
2019-03-17T22:42:47.488Z,1.93
2019-03-17T22:45:16.527Z,2.07
2019-03-17T22:47:44.972Z,2.93
2019-03-17T22:50:18.013Z,1.70
2019-03-17T22:52:46.685Z,1.73
2019-03-17T22:55:15.342Z,1.07
2019-03-17T22:57:43.925Z,2.87
2019-03-17T23:00:18.515Z,1.57
2019-03-17T23:02:46.933Z,2.87
2019-03-17T23:05:15.365Z,1.83
2019-03-17T23:07:43.770Z,1.53
2019-03-17T23:10:12.868Z,0.60
2019-03-17T23:12:41.308Z,1.50
2019-03-17T23:15:11.466Z,2.43
2019-03-17T23:17:39.991Z,1.53
2019-03-17T23:20:11.455Z,2.20
2019-03-17T23:22:39.878Z,1.80
2019-03-17T23:25:10.050Z,1.17
2019-03-17T23:27:38.736Z,1.67
2019-03-17T23:30:10.235Z,2.60
2019-03-17T23:32:38.718Z,1.50
2019-03-17T23:35:08.178Z,2.60
2019-03-17T23:37:36.622Z,2.63
2019-03-17T23:40:09.706Z,2.07
2019-03-17T23:42:38.196Z,1.00
2019-03-17T23:45:09.417Z,1.87
2019-03-17T23:47:38.201Z,1.20
2019-03-17T23:50:11.592Z,1.47
2019-03-17T23:52:40.114Z,0.60
2019-03-17T23:55:10.743Z,1.03
2019-03-17T23:57:39.249Z,1.03
